Map

Track Data

SID SEASON NUMBER BASIN SUBBASIN NAME ISO_TIME NATURE LAT LON WMO_WIND WMO_PRES WMO_AGENCY TRACK_TYPE DIST2LAND LANDFALL IFLAG USA_AGENCY USA_ATCF_ID USA_LAT USA_LON USA_RECORD USA_STATUS USA_WIND USA_PRES USA_SSHS USA_R34_NE USA_R34_SE USA_R34_SW USA_R34_NW USA_R50_NE USA_R50_SE USA_R50_SW USA_R50_NW USA_R64_NE USA_R64_SE USA_R64_SW USA_R64_NW USA_POCI USA_ROCI USA_RMW USA_EYE TOKYO_LAT TOKYO_LON TOKYO_GRADE TOKYO_WIND TOKYO_PRES TOKYO_R50_DIR TOKYO_R50_LONG TOKYO_R50_SHORT TOKYO_R30_DIR TOKYO_R30_LONG TOKYO_R30_SHORT TOKYO_LAND CMA_LAT CMA_LON CMA_CAT CMA_WIND CMA_PRES HKO_LAT HKO_LON HKO_CAT HKO_WIND HKO_PRES NEWDELHI_LAT NEWDELHI_LON NEWDELHI_GRADE NEWDELHI_WIND NEWDELHI_PRES NEWDELHI_CI NEWDELHI_DP NEWDELHI_POCI REUNION_LAT REUNION_LON REUNION_TYPE REUNION_WIND REUNION_PRES REUNION_TNUM REUNION_CI REUNION_RMW REUNION_R34_NE REUNION_R34_SE REUNION_R34_SW REUNION_R34_NW REUNION_R50_NE REUNION_R50_SE REUNION_R50_SW REUNION_R50_NW REUNION_R64_NE REUNION_R64_SE REUNION_R64_SW REUNION_R64_NW BOM_LAT BOM_LON BOM_TYPE BOM_WIND BOM_PRES BOM_TNUM BOM_CI BOM_RMW BOM_R34_NE BOM_R34_SE BOM_R34_SW BOM_R34_NW BOM_R50_NE BOM_R50_SE BOM_R50_SW BOM_R50_NW BOM_R64_NE BOM_R64_SE BOM_R64_SW BOM_R64_NW BOM_ROCI BOM_POCI BOM_EYE BOM_POS_METHOD BOM_PRES_METHOD NADI_LAT NADI_LON NADI_CAT NADI_WIND NADI_PRES WELLINGTON_LAT WELLINGTON_LON WELLINGTON_WIND WELLINGTON_PRES DS824_LAT DS824_LON DS824_STAGE DS824_WIND DS824_PRES TD9636_LAT TD9636_LON TD9636_STAGE TD9636_WIND TD9636_PRES TD9635_LAT TD9635_LON TD9635_WIND TD9635_PRES TD9635_ROCI NEUMANN_LAT NEUMANN_LON NEUMANN_CLASS NEUMANN_WIND NEUMANN_PRES MLC_LAT MLC_LON MLC_CLASS MLC_WIND MLC_PRES USA_GUST BOM_GUST BOM_GUST_PER REUNION_GUST REUNION_GUST_PER USA_SEAHGT USA_SEARAD_NE USA_SEARAD_SE USA_SEARAD_SW USA_SEARAD_NW STORM_SPEED STORM_DIR
1899009S11067 1899 3 SI MM NOT_NAMED 1899-01-09 00:00:00 TS -10.7000 66.6000 main 1419 1404 _________O____ -1 -10.7000 66.6000 TC 3 211
1899009S11067 1899 3 SI MM NOT_NAMED 1899-01-09 03:00:00 TS -10.8475 66.5100 main 1404 1379 _________P____ -1 -10.8475 66.5100 TC 4 213
1899009S11067 1899 3 SI MM NOT_NAMED 1899-01-09 06:00:00 TS -11.0000 66.4000 main 1379 1364 _________O____ -1 -11.0000 66.4000 TC 4 218
1899009S11067 1899 3 SI MM NOT_NAMED 1899-01-09 09:00:00 TS -11.1575 66.2575 main 1355 1333 _________P____ -1 -11.1575 66.2575 TC 4 224
1899009S11067 1899 3 SI MM NOT_NAMED 1899-01-09 12:00:00 TS -11.3000 66.1000 main 1333 1317 _________O____ -1 -11.3000 66.1000 TC 4 232
1899009S11067 1899 3 SI MM NOT_NAMED 1899-01-09 15:00:00 TS -11.4000 65.9425 main 1310 1294 _________P____ -1 -11.4000 65.9425 TC 4 236
1899009S11067 1899 3 SI MM NOT_NAMED 1899-01-09 18:00:00 TS -11.5000 65.8000 main 1294 1279 _________O____ -1 -11.5000 65.8000 TC 4 224
1899009S11067 1899 3 SI MM NOT_NAMED 1899-01-09 21:00:00 TS -11.6500 65.6925 main 1279 1255 _________P____ -1 -11.6500 65.6925 TC 4 213
1899009S11067 1899 3 SI MM NOT_NAMED 1899-01-10 00:00:00 TS -11.8000 65.6000 main 1255 1239 _________O____ -1 -11.8000 65.6000 TC 3 217
1899009S11067 1899 3 SI MM NOT_NAMED 1899-01-10 03:00:00 TS -11.9000 65.5000 main 1239 1223 _________P____ -1 -11.9000 65.5000 TC 3 224
1899009S11067 1899 3 SI MM NOT_NAMED 1899-01-10 06:00:00 TS -12.0000 65.4000 main 1223 1208 _________O____ -1 -12.0000 65.4000 TC 3 219
1899009S11067 1899 3 SI MM NOT_NAMED 1899-01-10 09:00:00 TS -12.1425 65.3000 main 1208 1184 _________P____ -1 -12.1425 65.3000 TC 4 213
1899009S11067 1899 3 SI MM NOT_NAMED 1899-01-10 12:00:00 TS -12.3000 65.2000 main 1184 1168 _________O____ -1 -12.3000 65.2000 TC 4 212
1899009S11067 1899 3 SI MM NOT_NAMED 1899-01-10 15:00:00 TS -12.4500 65.1000 main 1168 1144 _________P____ -1 -12.4500 65.1000 TC 4 213
1899009S11067 1899 3 SI MM NOT_NAMED 1899-01-10 18:00:00 TS -12.6000 65.0000 main 1144 1129 _________O____ -1 -12.6000 65.0000 TC 4 212
1899009S11067 1899 3 SI MM NOT_NAMED 1899-01-10 21:00:00 TS -12.7500 64.9075 main 1129 1105 _________P____ -1 -12.7500 64.9075 TC 4 213
1899009S11067 1899 3 SI MM NOT_NAMED 1899-01-11 00:00:00 TS -12.9000 64.8000 main 1105 1089 _________O____ -1 -12.9000 64.8000 TC 4 219
1899009S11067 1899 3 SI MM NOT_NAMED 1899-01-11 03:00:00 TS -13.0500 64.6575 main 1089 1058 _________P____ -1 -13.0500 64.6575 TC 4 224
1899009S11067 1899 3 SI MM NOT_NAMED 1899-01-11 06:00:00 TS -13.2000 64.5000 main 1058 1042 _________O____ -1 -13.2000 64.5000 TC 4 225
1899009S11067 1899 3 SI MM NOT_NAMED 1899-01-11 09:00:00 TS -13.3500 64.3425 main 1027 1011 _________P____ -1 -13.3500 64.3425 TC 4 224
1899009S11067 1899 3 SI MM NOT_NAMED 1899-01-11 12:00:00 TS -13.5000 64.2000 main 1011 996 _________O____ -1 -13.5000 64.2000 TC 4 218
1899009S11067 1899 3 SI MM NOT_NAMED 1899-01-11 15:00:00 TS -13.6575 64.0925 main 988 972 _________P____ -1 -13.6575 64.0925 TC 4 213
1899009S11067 1899 3 SI MM NOT_NAMED 1899-01-11 18:00:00 TS -13.8000 64.0000 main 972 956 _________O____ -1 -13.8000 64.0000 TC 3 216
1899009S11067 1899 3 SI MM NOT_NAMED 1899-01-11 21:00:00 TS -13.9000 63.9149 main 956 941 _________P____ -1 -13.9000 63.9149 TC 3 224
1899009S11067 1899 3 SI MM NOT_NAMED 1899-01-12 00:00:00 TS -14.0000 63.8000 main 941 918 _________O____ -1 -14.0000 63.8000 TC 4 232
1899009S11067 1899 3 SI MM NOT_NAMED 1899-01-12 03:00:00 TS -14.1350 63.6075 main 918 887 _________P____ -1 -14.1350 63.6075 TC 5 232
1899009S11067 1899 3 SI MM NOT_NAMED 1899-01-12 06:00:00 TS -14.3000 63.4000 main 887 863 _________O____ -1 -14.3000 63.4000 TC 5 224
1899009S11067 1899 3 SI MM NOT_NAMED 1899-01-12 09:00:00 TS -14.5000 63.2425 main 856 832 _________P____ -1 -14.5000 63.2425 TC 5 216
1899009S11067 1899 3 SI MM NOT_NAMED 1899-01-12 12:00:00 TS -14.7000 63.1000 main 832 817 _________O____ -1 -14.7000 63.1000 TC 5 219
1899009S11067 1899 3 SI MM NOT_NAMED 1899-01-12 15:00:00 TS -14.8575 62.9425 main 801 786 _________P____ -1 -14.8575 62.9425 TC 4 224
1899009S11067 1899 3 SI MM NOT_NAMED 1899-01-12 18:00:00 TS -15.0000 62.8000 main 786 770 _________O____ -1 -15.0000 62.8000 TC 4 219
1899009S11067 1899 3 SI MM NOT_NAMED 1899-01-12 21:00:00 TS -15.1500 62.7000 main 770 746 _________P____ -1 -15.1500 62.7000 TC 4 213
1899009S11067 1899 3 SI MM NOT_NAMED 1899-01-13 00:00:00 TS -15.3000 62.6000 main 746 731 _________O____ -1 -15.3000 62.6000 TC 4 219
1899009S11067 1899 3 SI MM NOT_NAMED 1899-01-13 03:00:00 TS -15.4425 62.4575 main 731 700 _________P____ -1 -15.4425 62.4575 TC 4 224
1899009S11067 1899 3 SI MM NOT_NAMED 1899-01-13 06:00:00 TS -15.6000 62.3000 main 700 676 _________O____ -1 -15.6000 62.3000 TC 5 220
1899009S11067 1899 3 SI MM NOT_NAMED 1899-01-13 09:00:00 TS -15.8075 62.1425 main 669 645 _________P____ -1 -15.8075 62.1425 TC 5 216
1899009S11067 1899 3 SI MM NOT_NAMED 1899-01-13 12:00:00 TS -16.0000 62.0000 main 645 630 _________O____ -1 -16.0000 62.0000 TC 4 219
1899009S11067 1899 3 SI MM NOT_NAMED 1899-01-13 15:00:00 TS -16.1075 61.8850 main 630 614 _________P____ -1 -16.1075 61.8850 TC 3 224
1899009S11067 1899 3 SI MM NOT_NAMED 1899-01-13 18:00:00 TS -16.2000 61.8000 main 614 606 _________O____ -1 -16.2000 61.8000 TC 3 208
1899009S11067 1899 3 SI MM NOT_NAMED 1899-01-13 21:00:00 TS -16.3425 61.7575 main 606 583 _________P____ -1 -16.3425 61.7575 TC 3 197
1899009S11067 1899 3 SI MM NOT_NAMED 1899-01-14 00:00:00 TS -16.5000 61.7000 main 583 568 _________O____ -1 -16.5000 61.7000 TC 4 211
1899009S11067 1899 3 SI MM NOT_NAMED 1899-01-14 03:00:00 TS -16.6500 61.5650 main 560 537 _________P____ -1 -16.6500 61.5650 TC 4 224
1899009S11067 1899 3 SI MM NOT_NAMED 1899-01-14 06:00:00 TS -16.8000 61.4000 main 537 521 _________O____ -1 -16.8000 61.4000 TC 4 227
1899009S11067 1899 3 SI MM NOT_NAMED 1899-01-14 09:00:00 TS -16.9425 61.2425 main 514 490 _________P____ -1 -16.9425 61.2425 TC 4 224
1899009S11067 1899 3 SI MM NOT_NAMED 1899-01-14 12:00:00 TS -17.1000 61.1000 main 490 467 _________O____ -1 -17.1000 61.1000 TC 4 215
1899009S11067 1899 3 SI MM NOT_NAMED 1899-01-14 15:00:00 TS -17.2925 60.9850 main 467 445 _________P____ -1 -17.2925 60.9850 TC 4 205
1899009S11067 1899 3 SI MM NOT_NAMED 1899-01-14 18:00:00 TS -17.5000 60.9000 main 445 422 _________O____ -1 -17.5000 60.9000 TC 4 198
1899009S11067 1899 3 SI MM NOT_NAMED 1899-01-14 21:00:00 TS -17.7075 60.8425 main 422 408 _________P____ -1 -17.7075 60.8425 TC 4 193
1899009S11067 1899 3 SI MM NOT_NAMED 1899-01-15 00:00:00 TS -17.9000 60.8000 main 408 401 _________O____ -1 -17.9000 60.8000 TC 4 194
1899009S11067 1899 3 SI MM NOT_NAMED 1899-01-15 03:00:00 TS -18.0575 60.7500 main 386 380 _________P____ -1 -18.0575 60.7500 TC 3 197
1899009S11067 1899 3 SI MM NOT_NAMED 1899-01-15 06:00:00 TS -18.2000 60.7000 main 380 365 _________O____ -1 -18.2000 60.7000 TC 3 200
1899009S11067 1899 3 SI MM NOT_NAMED 1899-01-15 09:00:00 TS -18.3500 60.6425 main 358 353 _________P____ -1 -18.3500 60.6425 TC 3 197
1899009S11067 1899 3 SI MM NOT_NAMED 1899-01-15 12:00:00 TS -18.5000 60.6000 main 353 347 _________O____ -1 -18.5000 60.6000 TC 3 189
1899009S11067 1899 3 SI MM NOT_NAMED 1899-01-15 15:00:00 TS -18.6425 60.5925 main 347 337 _________P____ -1 -18.6425 60.5925 TC 3 0
1899009S11067 1899 3 SI MM NOT_NAMED 1899-01-15 18:00:00 TS -18.8000 60.6000 main 337 327 _________O____ -1 -18.8000 60.6000 TC 3 178
1899009S11067 1899 3 SI MM NOT_NAMED 1899-01-15 21:00:00 TS -18.9850 60.6000 main 327 317 _________P____ -1 -18.9850 60.6000 TC 4 0
1899009S11067 1899 3 SI MM NOT_NAMED 1899-01-16 00:00:00 TS -19.2000 60.6000 main 317 309 _________O____ -1 -19.2000 60.6000 TC 5 183
1899009S11067 1899 3 SI MM NOT_NAMED 1899-01-16 03:00:00 TS -19.4425 60.5925 main 309 300 _________P____ -1 -19.4425 60.5925 TC 5 178
1899009S11067 1899 3 SI MM NOT_NAMED 1899-01-16 06:00:00 TS -19.7000 60.6000 main 300 295 _________O____ -1 -19.7000 60.6000 TC 5 177
1899009S11067 1899 3 SI MM NOT_NAMED 1899-01-16 09:00:00 TS -19.9575 60.6425 main 294 294 _________P____ -1 -19.9575 60.6425 TC 5 169
1899009S11067 1899 3 SI MM NOT_NAMED 1899-01-16 12:00:00 TS -20.2000 60.7000 main 302 302 _________O____ -1 -20.2000 60.7000 TC 5 168
1899009S11067 1899 3 SI MM NOT_NAMED 1899-01-16 15:00:00 TS -20.4075 60.7425 main 302 302 _________P____ -1 -20.4075 60.7425 TC 4 167
1899009S11067 1899 3 SI MM NOT_NAMED 1899-01-16 18:00:00 TS -20.6000 60.8000 main 314 314 _________O____ -1 -20.6000 60.8000 TC 3 165
1899009S11067 1899 3 SI MM NOT_NAMED 1899-01-16 21:00:00 TS -20.7323 60.8407 main 315 315 _________P____ -1 -20.7323 60.8407 TC 4 155
1899009S11067 1899 3 SI MM NOT_NAMED 1899-01-17 00:00:00 TS -21.0000 61.0000 main 341 341 _________O____ -1 -21.0000 61.0000 TC 10 150
1899009S11067 1899 3 SI MM NOT_NAMED 1899-01-17 03:00:00 TS -21.5901 61.3821 main 401 401 _________P____ -1 -21.5901 61.3821 TC 16 147
1899009S11067 1899 3 SI MM NOT_NAMED 1899-01-17 06:00:00 TS -22.3000 61.9000 main 479 479 _________O____ -1 -22.3000 61.9000 TC 17 144
1899009S11067 1899 3 SI MM NOT_NAMED 1899-01-17 09:00:00 TS -22.9300 62.4425 main 554 554 _________P____ -1 -22.9300 62.4425 TC 16 140
1899009S11067 1899 3 SI MM NOT_NAMED 1899-01-17 12:00:00 TS -23.5000 63.0000 main 640 640 _________O____ -1 -23.5000 63.0000 TC 14 137
1899009S11067 1899 3 SI MM NOT_NAMED 1899-01-17 15:00:00 TS -23.9872 63.5006 main 713 713 _________P____ -1 -23.9872 63.5006 TC 13 135
1899009S11067 1899 3 SI MM NOT_NAMED 1899-01-17 18:00:00 TS -24.4000 64.0000 main 780 780 _________O____ -1 -24.4000 64.0000 TC 12 129
1899009S11067 1899 3 SI MM NOT_NAMED 1899-01-17 21:00:00 TS -24.7630 64.5368 main 846 846 _________P____ -1 -24.7630 64.5368 TC 12 125
1899009S11067 1899 3 SI MM NOT_NAMED 1899-01-18 00:00:00 TS -25.1000 65.1000 main 915 _________O____ -1 -25.1000 65.1000 TC 12 123

About IBTrACS Database

This database is a web-friendly format of International Best Track Archive for Climate Stewardship (IBTrACS), a global best track data archive curated by NOAA dating back to 1842.

Updated: 2021-10-21